Time;durP1;ratioP1;P1;durP2;ratioP2;P2;SDS_P1;SDS_P2;PMS_P1;PMS_P2;Temp;Humidity;BMP_temperature;BMP_pressure;BME280_temperature;BME280_humidity;BME280_pressure;Samples;Min_cycle;Max_cycle;Signal;HPM_P1;HPM_P2
2023/10/09 00:03:01;;;;;;;;;;;;;;;;;;5020920;28;20351;-61
2023/10/09 00:05:38;;;;;;;;;;;;;;;;;;5008369;28;19944;-61
2023/10/09 00:08:08;;;;;;;;;;;;;;;;;;5029281;28;19925;-62
2023/10/09 00:10:36;;;;;;;;;;;;;;;;;;5028388;28;20411;-62
2023/10/09 00:13:04;;;;;;;;;;;;;;;;;;5039734;28;20014;-64
2023/10/09 00:15:33;;;;;;;;;;;;;;;;;;5027605;28;20020;-63
2023/10/09 00:17:58;;;;;;;;;;;;;;;;;;5024723;28;19978;-62
2023/10/09 00:20:34;;;;;;;;;;;;;;;;;;5027522;28;19924;-62
2023/10/09 00:23:15;;;;;;;;;;;;;;;;;;5026320;28;20351;-63
2023/10/09 00:25:47;;;;;;;;;;;;;;;;;;5025586;28;19921;-63
2023/10/09 00:28:14;;;;;;;;;;;;;;;;;;5025931;28;20000;-64
2023/10/09 00:30:40;;;;;;;;;;;;;;;;;;5012899;28;21401;-63
2023/10/09 00:33:09;;;;;;;;;;;;;;;;;;5041249;28;19927;-63
2023/10/09 00:35:46;;;;;;;;;;;;;;;;;;5024286;28;19944;-63
2023/10/09 00:40:57;;;;;;;;;;;;;;;;;;5024909;28;20610;-63
2023/10/09 00:43:29;;;;;;;;;;;;;;;;;;5015209;28;20419;-63
2023/10/09 00:45:54;;;;;;;;;;;;;;;;;;5023462;28;19927;-63
2023/10/09 00:48:30;;;;;;;;;;;;;;;;;;5012623;28;19975;-63
2023/10/09 00:50:59;;;;;;;;;;;;;;;;;;5024707;28;19928;-63
2023/10/09 00:53:32;;;;;;;;;;;;;;;;;;5026511;28;19935;-63
2023/10/09 00:56:03;;;;;;;;;;;;;;;;;;5031762;28;19928;-64
2023/10/09 00:58:35;;;;;;;;;;;;;;;;;;5025005;28;20013;-65
2023/10/09 01:01:04;;;;;;;;;;;;;;;;;;5014969;28;19932;-64
2023/10/09 01:03:33;;;;;;;;;;;;;;;;;;5022900;28;20345;-63
2023/10/09 01:05:59;;;;;;;;;;;;;;;;;;5024585;28;19943;-62
2023/10/09 01:08:28;;;;;;;;;;;;;;;;;;5039607;28;19967;-63
2023/10/09 01:10:56;;;;;;;;;;;;;;;;;;5024760;28;20483;-64
2023/10/09 01:13:27;;;;;;;;;;;;;;;;;;5022644;28;19913;-64
2023/10/09 01:15:58;;;;;;;;;;;;;;;;;;5025308;28;20315;-62
2023/10/09 01:18:31;;;;;;;;;;;;;;;;;;5031034;28;19929;-63
2023/10/09 01:20:57;;;;;;;;;;;;;;;;;;5023666;28;20375;-63
2023/10/09 01:23:23;;;;;;;;;;;;;;;;;;5010561;28;20123;-64
2023/10/09 01:25:52;;;;;;;;;;;;;;;;;;5026038;28;20047;-62
2023/10/09 01:28:18;;;;;;;;;;;;;;;;;;5023852;28;20284;-63
2023/10/09 01:30:43;;;;;;;;;;;;;;;;;;5029843;28;19928;-64
2023/10/09 01:33:22;;;;;;;;;;;;;;;;;;5031794;28;20800;-64
2023/10/09 01:35:53;;;;;;;;;;;;;;;;;;5017918;28;19917;-63
2023/10/09 01:38:31;;;;;;;;;;;;;;;;;;5028768;28;19919;-63
2023/10/09 01:41:03;;;;;;;;;;;;;;;;;;5021010;28;19924;-63
2023/10/09 01:43:29;;;;;;;;;;;;;;;;;;5025490;28;20338;-63
2023/10/09 01:46:01;;;;;;;;;;;;;;;;;;5020697;28;20019;-63
2023/10/09 01:48:26;;;;;;;;;;;;;;;;;;5031404;28;20079;-63
2023/10/09 01:50:51;;;;;;;;;;;;;;;;;;5016858;28;19925;-63
2023/10/09 01:53:22;;;;;;;;;;;;;;;;;;5024731;28;19999;-63
2023/10/09 01:55:55;;;;;;;;;;;;;;;;;;5029261;28;19928;-63
2023/10/09 02:00:48;;;;;;;;;;;;;;;;;;5020682;28;20024;-63
2023/10/09 02:03:23;;;;;;;;;;;;;;;;;;5024715;28;20379;-63
2023/10/09 02:05:50;;;;;;;;;;;;;;;;;;5008676;28;19917;-63
2023/10/09 02:08:16;;;;;;;;;;;;;;;;;;5010470;28;19917;-63
2023/10/09 02:10:47;;;;;;;;;;;;;;;;;;5022224;28;19975;-63
2023/10/09 02:13:17;;;;;;;;;;;;;;;;;;5013846;28;20168;-63
2023/10/09 02:21:12;;;;;;;;;;;;;;;;;;;;;
2023/10/09 02:23:39;;;;;;;;;;;;;;;;;;5021030;28;20379;-64
2023/10/09 02:26:07;;;;;;;;;;;;;;;;;;5022550;28;19916;-64
2023/10/09 02:28:35;;;;;;;;;;;;;;;;;;5008172;28;19920;-63
2023/10/09 02:31:09;;;;;;;;;;;;;;;;;;5020682;28;20639;-64
2023/10/09 02:33:39;;;;;;;;;;;;;;;;;;5021109;28;20531;-62
2023/10/09 02:36:05;;;;;;;;;;;;;;;;;;5021862;28;19968;-62
2023/10/09 02:38:35;;;;;;;;;;;;;;;;;;5035540;28;20395;-62
2023/10/09 02:43:44;;;;;;;;;;;;;;;;;;5018475;28;20003;-63
2023/10/09 02:46:21;;;;;;;;;;;;;;;;;;5020481;28;20372;-63
2023/10/09 02:48:56;;;;;;;;;;;;;;;;;;5026478;28;20055;-62
2023/10/09 02:51:31;;;;;;;;;;;;;;;;;;5039016;28;20031;-63
2023/10/09 02:53:57;;;;;;;;;;;;;;;;;;5023897;28;20375;-63
2023/10/09 02:56:36;;;;;;;;;;;;;;;;;;5020876;28;19940;-63
2023/10/09 02:59:06;;;;;;;;;;;;;;;;;;5019624;28;20655;-63
2023/10/09 03:01:34;;;;;;;;;;;;;;;;;;5020849;28;19958;-63
2023/10/09 03:04:02;;;;;;;;;;;;;;;;;;5020764;28;20448;-62
2023/10/09 03:06:30;;;;;;;;;;;;;;;;;;5021230;28;20783;-62
2023/10/09 03:08:56;;;;;;;;;;;;;;;;;;5021710;28;19920;-63
2023/10/09 03:11:21;;;;;;;;;;;;;;;;;;5011649;28;19998;-65
2023/10/09 03:13:47;;;;;;;;;;;;;;;;;;5009030;28;19925;-64
2023/10/09 03:16:24;;;;;;;;;;;;;;;;;;5011223;28;20779;-64
2023/10/09 03:18:49;;;;;;;;;;;;;;;;;;5040896;28;20199;-63
2023/10/09 03:21:14;;;;;;;;;;;;;;;;;;5022461;28;20023;-64
2023/10/09 03:23:49;;;;;;;;;;;;;;;;;;5028012;28;20344;-64
2023/10/09 03:26:20;;;;;;;;;;;;;;;;;;5024426;28;19916;-64
2023/10/09 03:28:49;;;;;;;;;;;;;;;;;;5027889;28;20086;-64
2023/10/09 03:31:17;;;;;;;;;;;;;;;;;;5042369;28;19975;-64
2023/10/09 03:33:44;;;;;;;;;;;;;;;;;;5039886;28;19916;-65
2023/10/09 03:36:13;;;;;;;;;;;;;;;;;;5021190;28;20150;-64
2023/10/09 03:38:38;;;;;;;;;;;;;;;;;;5012977;28;19924;-65
2023/10/09 03:41:12;;;;;;;;;;;;;;;;;;5014071;28;19921;-64
2023/10/09 03:43:39;;;;;;;;;;;;;;;;;;5041494;28;19975;-65
2023/10/09 03:46:05;;;;;;;;;;;;;;;;;;5030144;28;20531;-65
2023/10/09 03:48:36;;;;;;;;;;;;;;;;;;5027045;28;19916;-64
2023/10/09 03:51:08;;;;;;;;;;;;;;;;;;5041958;28;20585;-64
2023/10/09 03:53:36;;;;;;;;;;;;;;;;;;5022905;28;20200;-65
2023/10/09 03:56:05;;;;;;;;;;;;;;;;;;5042675;28;19971;-65
2023/10/09 03:58:33;;;;;;;;;;;;;;;;;;5041297;28;19932;-65
2023/10/09 04:00:58;;;;;;;;;;;;;;;;;;5031261;28;21855;-65
2023/10/09 04:03:29;;;;;;;;;;;;;;;;;;5025045;28;19931;-65
2023/10/09 04:05:57;;;;;;;;;;;;;;;;;;5029652;28;19920;-65
2023/10/09 04:08:29;;;;;;;;;;;;;;;;;;5040460;28;19916;-64
2023/10/09 04:11:01;;;;;;;;;;;;;;;;;;5041568;28;19921;-64
2023/10/09 04:13:33;;;;;;;;;;;;;;;;;;5040290;28;19917;-64
2023/10/09 04:15:59;;;;;;;;;;;;;;;;;;5031045;28;20344;-65
2023/10/09 04:18:32;;;;;;;;;;;;;;;;;;5037131;28;19928;-64
2023/10/09 04:24:09;;;;;;;;;;;;;;;;;;5021244;28;19921;-64
2023/10/09 04:26:37;;;;;;;;;;;;;;;;;;5039652;28;20329;-64
2023/10/09 04:29:02;;;;;;;;;;;;;;;;;;5020766;28;19983;-64
2023/10/09 04:31:31;;;;;;;;;;;;;;;;;;5023805;28;19929;-64
2023/10/09 04:37:00;;;;;;;;;;;;;;;;;;4970126;28;20534;-64
2023/10/09 04:45:18;;;;;;;;;;;;;;;;;;5019981;28;19935;-64
2023/10/09 04:55:55;;;;;;;;;;;;;;;;;;5013847;28;19974;-63
2023/10/09 04:58:26;;;;;;;;;;;;;;;;;;5022751;28;19971;-63
2023/10/09 05:06:55;;;;;;;;;;;;;;;;;;5024888;28;20029;-64
2023/10/09 05:09:23;;;;;;;;;;;;;;;;;;5011094;28;20078;-68
2023/10/09 05:14:17;;;;;;;;;;;;;;;;;;5023335;28;19979;-65
2023/10/09 05:16:54;;;;;;;;;;;;;;;;;;5029373;28;20403;-65
2023/10/09 05:22:16;;;;;;;;;;;;;;;;;;5023324;28;19917;-65
2023/10/09 05:24:48;;;;;;;;;;;;;;;;;;5027335;28;20533;-64
2023/10/09 05:27:24;;;;;;;;;;;;;;;;;;5025584;28;19966;-64
2023/10/09 05:38:46;;;;;;;;;;;;;;;;;;5022515;28;19928;-66
2023/10/09 05:47:22;;;;;;;;;;;;;;;;;;5023821;28;19921;-66
2023/10/09 05:49:45;;;;;;;;;;;;;;;;;;5024484;28;20415;-66
2023/10/09 06:08:26;;;;;;;;;;;;;;;;;;5024390;28;19931;-65
2023/10/09 06:11:05;;;;;;;;;;;;;;;;;;5013037;28;20008;-65
2023/10/09 06:13:46;;;;;;;;;;;;;;;;;;5023899;28;19928;-63
2023/10/09 06:33:00;;;;;;;;;;;;;;;;;;;;;
2023/10/09 06:35:31;;;;;;;;;;;;;;;;;;5044633;28;19923;-67
2023/10/09 06:43:53;;;;;;;;;;;;;;;;;;4989414;28;20033;-65
2023/10/09 06:48:56;;;;;;;;;;;;;;;;;;5027282;28;19920;-70
2023/10/09 06:58:57;;;;;;;;;;;;;;;;;;5044260;28;19937;-68
2023/10/09 07:01:39;;;;;;;;;;;;;;;;;;5028197;28;20003;-66
2023/10/09 07:04:45;;;;;;;;;;;;;;;;;;5043126;28;20262;-66
2023/10/09 07:07:12;;;;;;;;;;;;;;;;;;5043227;28;20284;-66
2023/10/09 07:12:27;;;;;;;;;;;;;;;;;;5041521;28;19924;-66
2023/10/09 07:20:36;;;;;;;;;;;;;;;;;;5042112;28;19921;-67
2023/10/09 07:23:17;;;;;;;;;;;;;;;;;;5044685;28;20010;-68
2023/10/09 07:25:59;;;;;;;;;;;;;;;;;;5033100;28;20319;-67
2023/10/09 07:28:42;;;;;;;;;;;;;;;;;;5041982;28;20042;-67
2023/10/09 07:31:23;;;;;;;;;;;;;;;;;;5031416;28;20339;-66
2023/10/09 07:33:56;;;;;;;;;;;;;;;;;;5041364;28;19917;-67
2023/10/09 07:36:37;;;;;;;;;;;;;;;;;;5024634;28;19921;-67
2023/10/09 07:39:08;;;;;;;;;;;;;;;;;;5020262;28;19917;-67
2023/10/09 07:41:56;;;;;;;;;;;;;;;;;;5015172;28;20014;-67
2023/10/09 07:44:52;;;;;;;;;;;;;;;;;;5043791;28;20007;-67
2023/10/09 07:47:17;;;;;;;;;;;;;;;;;;5023465;28;20498;-67
2023/10/09 07:49:48;;;;;;;;;;;;;;;;;;5044061;28;19924;-67
2023/10/09 07:52:13;;;;;;;;;;;;;;;;;;5042666;28;20557;-68
2023/10/09 07:54:52;;;;;;;;;;;;;;;;;;5032744;28;19920;-67
2023/10/09 07:57:26;;;;;;;;;;;;;;;;;;5033373;28;19984;-66
2023/10/09 08:00:11;;;;;;;;;;;;;;;;;;5032793;28;20118;-68
2023/10/09 08:02:38;;;;;;;;;;;;;;;;;;5042651;28;19959;-67
2023/10/09 08:05:06;;;;;;;;;;;;;;;;;;5041696;28;19921;-70
2023/10/09 08:07:35;;;;;;;;;;;;;;;;;;5041730;28;20458;-67
2023/10/09 08:15:21;;;;;;;;;;;;;;;;;;5025270;28;20035;-66
2023/10/09 08:23:28;;;;;;;;;;;;;;;;;;5031480;28;19920;-70
2023/10/09 08:26:12;;;;;;;;;;;;;;;;;;5011500;28;19928;-68
2023/10/09 08:28:42;;;;;;;;;;;;;;;;;;5035300;28;19975;-69
2023/10/09 08:31:18;;;;;;;;;;;;;;;;;;5048110;28;19986;-68
2023/10/09 08:33:56;;;;;;;;;;;;;;;;;;5036586;28;19970;-73
2023/10/09 08:36:36;;;;;;;;;;;;;;;;;;5048738;28;20276;-75
2023/10/09 08:39:14;;;;;;;;;;;;;;;;;;5028696;28;20429;-70
2023/10/09 08:41:57;;;;;;;;;;;;;;;;;;5036810;28;19920;-70
2023/10/09 08:44:24;;;;;;;;;;;;;;;;;;5030692;28;20509;-72
2023/10/09 08:46:58;;;;;;;;;;;;;;;;;;5048095;28;20380;-69
2023/10/09 08:49:26;;;;;;;;;;;;;;;;;;5033770;28;19921;-72
2023/10/09 08:51:52;;;;;;;;;;;;;;;;;;5028969;28;19950;-69
2023/10/09 08:54:18;;;;;;;;;;;;;;;;;;5021448;28;20514;-71
2023/10/09 08:56:49;;;;;;;;;;;;;;;;;;5036066;28;19926;-71
2023/10/09 08:59:18;;;;;;;;;;;;;;;;;;5031231;28;19917;-70
2023/10/09 09:01:49;;;;;;;;;;;;;;;;;;5032266;28;19917;-68
2023/10/09 09:04:15;;;;;;;;;;;;;;;;;;5045684;28;19921;-70
2023/10/09 09:06:50;;;;;;;;;;;;;;;;;;5018589;28;20009;-69
2023/10/09 09:09:15;;;;;;;;;;;;;;;;;;5028372;28;20011;-71
2023/10/09 09:11:48;;;;;;;;;;;;;;;;;;5027324;28;19924;-70
2023/10/09 09:14:18;;;;;;;;;;;;;;;;;;5046973;28;19921;-68
2023/10/09 09:16:48;;;;;;;;;;;;;;;;;;5028950;28;19916;-72
2023/10/09 09:19:19;;;;;;;;;;;;;;;;;;5017351;28;19935;-71
2023/10/09 09:21:47;;;;;;;;;;;;;;;;;;5045925;28;19916;-71
2023/10/09 09:24:33;;;;;;;;;;;;;;;;;;5028426;28;19974;-69
2023/10/09 09:26:59;;;;;;;;;;;;;;;;;;5036472;28;19923;-70
2023/10/09 09:29:24;;;;;;;;;;;;;;;;;;5035745;28;19924;-76
2023/10/09 09:31:51;;;;;;;;;;;;;;;;;;5033868;28;20375;-74
2023/10/09 09:34:17;;;;;;;;;;;;;;;;;;5037870;28;19921;-72
2023/10/09 09:36:47;;;;;;;;;;;;;;;;;;5031375;28;19917;-71
2023/10/09 09:39:19;;;;;;;;;;;;;;;;;;5020335;28;20298;-73
2023/10/09 09:41:45;;;;;;;;;;;;;;;;;;5028742;28;19969;-72
2023/10/09 09:44:17;;;;;;;;;;;;;;;;;;5032873;28;19920;-71
2023/10/09 09:46:43;;;;;;;;;;;;;;;;;;5035269;28;19995;-72
2023/10/09 09:49:16;;;;;;;;;;;;;;;;;;5027536;28;19920;-72
2023/10/09 09:51:42;;;;;;;;;;;;;;;;;;5026103;28;20009;-71
2023/10/09 09:54:09;;;;;;;;;;;;;;;;;;5034374;28;19916;-73
2023/10/09 09:56:34;;;;;;;;;;;;;;;;;;5034791;28;19927;-69
2023/10/09 09:59:00;;;;;;;;;;;;;;;;;;5043714;28;20372;-71
2023/10/09 10:01:28;;;;;;;;;;;;;;;;;;5028021;28;19929;-73
2023/10/09 10:03:56;;;;;;;;;;;;;;;;;;5016339;28;19920;-73
2023/10/09 10:06:26;;;;;;;;;;;;;;;;;;5034646;28;19920;-72
2023/10/09 10:08:54;;;;;;;;;;;;;;;;;;5045090;28;20007;-70
2023/10/09 10:11:21;;;;;;;;;;;;;;;;;;5043521;28;19920;-69
2023/10/09 10:13:49;;;;;;;;;;;;;;;;;;5029535;28;20782;-70
2023/10/09 10:16:20;;;;;;;;;;;;;;;;;;5043357;28;19927;-68
2023/10/09 10:18:51;;;;;;;;;;;;;;;;;;5034235;28;20485;-70
2023/10/09 10:21:17;;;;;;;;;;;;;;;;;;5035727;28;19921;-72
2023/10/09 10:23:47;;;;;;;;;;;;;;;;;;5044222;28;20303;-71
2023/10/09 10:26:15;;;;;;;;;;;;;;;;;;5026211;28;20024;-70
2023/10/09 10:28:45;;;;;;;;;;;;;;;;;;5026817;28;19917;-68
2023/10/09 10:31:13;;;;;;;;;;;;;;;;;;5015796;28;19929;-68
2023/10/09 10:33:40;;;;;;;;;;;;;;;;;;5030602;28;19916;-71
2023/10/09 10:36:09;;;;;;;;;;;;;;;;;;5025513;28;19920;-71
2023/10/09 10:38:44;;;;;;;;;;;;;;;;;;5028102;28;19920;-69
2023/10/09 10:41:11;;;;;;;;;;;;;;;;;;5020443;28;19917;-70
2023/10/09 10:46:56;;;;;;;;;;;;;;;;;;5025598;28;19921;-69
2023/10/09 10:51:39;;;;;;;;;;;;;;;;;;5026456;28;20029;-70
2023/10/09 10:56:57;;;;;;;;;;;;;;;;;;5045549;28;19917;-73
2023/10/09 10:59:28;;;;;;;;;;;;;;;;;;5033776;28;19916;-78
2023/10/09 11:01:57;;;;;;;;;;;;;;;;;;5044442;28;19917;-71
2023/10/09 11:04:45;;;;;;;;;;;;;;;;;;5032024;28;20799;-68
2023/10/09 11:12:44;;;;;;;;;;;;;;;;;;5026933;28;19958;-72
2023/10/09 11:17:51;;;;;;;;;;;;;;;;;;5026385;28;19920;-72
2023/10/09 11:20:26;;;;;;;;;;;;;;;;;;5025188;28;19960;-70
2023/10/09 11:25:50;;;;;;;;;;;;;;;;;;5033017;28;19916;-71
2023/10/09 11:28:42;;;;;;;;;;;;;;;;;;5030391;28;19917;-68
2023/10/09 11:31:21;;;;;;;;;;;;;;;;;;5039247;28;19968;-69
2023/10/09 11:34:01;;;;;;;;;;;;;;;;;;5028493;28;20045;-71
2023/10/09 11:36:38;;;;;;;;;;;;;;;;;;5034332;28;20805;-69
2023/10/09 11:39:20;;;;;;;;;;;;;;;;;;5031333;28;19963;-71
2023/10/09 11:41:49;;;;;;;;;;;;;;;;;;5012155;28;19928;-68
2023/10/09 11:44:33;;;;;;;;;;;;;;;;;;5044413;28;20023;-68
2023/10/09 11:49:45;;;;;;;;;;;;;;;;;;5034444;28;20002;-69
2023/10/09 11:54:38;;;;;;;;;;;;;;;;;;5045035;28;21158;-67
2023/10/09 11:57:03;;;;;;;;;;;;;;;;;;5026524;28;20210;-70
2023/10/09 11:59:34;;;;;;;;;;;;;;;;;;5024772;28;19963;-69
2023/10/09 12:02:00;;;;;;;;;;;;;;;;;;5031324;28;20399;-69
2023/10/09 12:04:30;;;;;;;;;;;;;;;;;;5037225;28;19916;-68
2023/10/09 12:07:06;;;;;;;;;;;;;;;;;;5046985;28;20372;-68
2023/10/09 12:09:37;;;;;;;;;;;;;;;;;;5018153;28;19921;-68
2023/10/09 12:12:04;;;;;;;;;;;;;;;;;;5020278;28;19921;-68
2023/10/09 12:14:37;;;;;;;;;;;;;;;;;;5032094;28;20372;-68
2023/10/09 12:17:05;;;;;;;;;;;;;;;;;;5046774;28;20006;-69
2023/10/09 12:19:33;;;;;;;;;;;;;;;;;;5047839;28;19924;-69
2023/10/09 12:22:00;;;;;;;;;;;;;;;;;;5030985;28;19921;-68
2023/10/09 12:24:31;;;;;;;;;;;;;;;;;;5027898;28;20007;-67
2023/10/09 12:26:56;;;;;;;;;;;;;;;;;;5028750;28;19963;-67
2023/10/09 12:29:21;;;;;;;;;;;;;;;;;;5017061;28;19920;-68
2023/10/09 12:31:57;;;;;;;;;;;;;;;;;;5045885;28;20273;-70
2023/10/09 12:34:26;;;;;;;;;;;;;;;;;;5020933;28;19923;-69
2023/10/09 12:36:51;;;;;;;;;;;;;;;;;;5046175;28;19978;-67
2023/10/09 12:39:20;;;;;;;;;;;;;;;;;;5018804;28;20019;-67
2023/10/09 12:41:53;;;;;;;;;;;;;;;;;;5027693;28;20013;-67
2023/10/09 12:44:18;;;;;;;;;;;;;;;;;;5038325;28;20668;-69
2023/10/09 12:46:56;;;;;;;;;;;;;;;;;;5011294;28;20413;-69
2023/10/09 12:49:25;;;;;;;;;;;;;;;;;;5045426;28;19948;-68
2023/10/09 12:51:50;;;;;;;;;;;;;;;;;;5034627;28;21824;-68
2023/10/09 12:54:15;;;;;;;;;;;;;;;;;;5028844;28;20012;-70
2023/10/09 12:56:40;;;;;;;;;;;;;;;;;;5028884;28;20327;-69
2023/10/09 12:59:07;;;;;;;;;;;;;;;;;;5030037;28;19916;-68
2023/10/09 13:01:44;;;;;;;;;;;;;;;;;;5021267;28;19921;-69
2023/10/09 13:04:11;;;;;;;;;;;;;;;;;;5045303;28;20006;-68
2023/10/09 13:06:43;;;;;;;;;;;;;;;;;;5045990;28;20485;-68
2023/10/09 13:09:11;;;;;;;;;;;;;;;;;;5020453;28;19916;-68
2023/10/09 13:11:40;;;;;;;;;;;;;;;;;;5030489;28;20043;-68
2023/10/09 13:14:11;;;;;;;;;;;;;;;;;;5018567;28;20013;-67
2023/10/09 13:16:36;;;;;;;;;;;;;;;;;;5046843;28;20099;-68
2023/10/09 13:19:09;;;;;;;;;;;;;;;;;;5042254;28;19982;-68
2023/10/09 13:21:37;;;;;;;;;;;;;;;;;;5044200;28;19924;-66
2023/10/09 13:24:02;;;;;;;;;;;;;;;;;;5045909;28;19969;-67
2023/10/09 13:26:29;;;;;;;;;;;;;;;;;;5026399;28;19921;-66
2023/10/09 13:28:57;;;;;;;;;;;;;;;;;;5019681;28;19999;-66
2023/10/09 13:31:25;;;;;;;;;;;;;;;;;;5019529;28;20283;-67
2023/10/09 13:33:54;;;;;;;;;;;;;;;;;;5017719;28;19921;-67
2023/10/09 13:36:26;;;;;;;;;;;;;;;;;;5029652;28;20249;-66
2023/10/09 13:38:53;;;;;;;;;;;;;;;;;;5047757;28;20384;-66
2023/10/09 13:41:18;;;;;;;;;;;;;;;;;;5027668;28;19916;-66
2023/10/09 13:43:46;;;;;;;;;;;;;;;;;;5013365;28;20062;-64
2023/10/09 13:46:12;;;;;;;;;;;;;;;;;;5030174;28;20275;-65
2023/10/09 13:48:38;;;;;;;;;;;;;;;;;;5019794;28;19917;-66
2023/10/09 13:51:07;;;;;;;;;;;;;;;;;;5028583;28;20861;-66
2023/10/09 13:53:35;;;;;;;;;;;;;;;;;;5030454;28;19913;-65
2023/10/09 13:56:00;;;;;;;;;;;;;;;;;;5043970;28;20025;-66
2023/10/09 13:58:26;;;;;;;;;;;;;;;;;;5019001;28;19921;-65
2023/10/09 14:00:53;;;;;;;;;;;;;;;;;;5043572;28;19923;-65
2023/10/09 14:03:19;;;;;;;;;;;;;;;;;;5032326;28;20038;-64
2023/10/09 14:06:10;;;;;;;;;;;;;;;;;;5025391;28;19920;-66
2023/10/09 14:08:42;;;;;;;;;;;;;;;;;;5027059;28;19920;-65
2023/10/09 14:11:13;;;;;;;;;;;;;;;;;;5043012;28;19971;-66
2023/10/09 14:13:38;;;;;;;;;;;;;;;;;;5019719;28;19921;-65
2023/10/09 14:16:04;;;;;;;;;;;;;;;;;;5043224;28;19916;-65
2023/10/09 14:18:29;;;;;;;;;;;;;;;;;;5035773;28;19939;-65
2023/10/09 14:20:56;;;;;;;;;;;;;;;;;;5044363;28;19931;-66
2023/10/09 14:23:21;;;;;;;;;;;;;;;;;;5044852;28;20016;-66
2023/10/09 14:25:50;;;;;;;;;;;;;;;;;;5033386;28;20251;-66
2023/10/09 14:28:18;;;;;;;;;;;;;;;;;;5016518;28;19944;-65
2023/10/09 14:30:44;;;;;;;;;;;;;;;;;;5042773;28;19921;-65
2023/10/09 14:33:22;;;;;;;;;;;;;;;;;;5031187;28;19920;-66
2023/10/09 14:35:52;;;;;;;;;;;;;;;;;;5015774;28;19920;-66
2023/10/09 14:38:26;;;;;;;;;;;;;;;;;;5044798;28;20395;-65
2023/10/09 14:40:57;;;;;;;;;;;;;;;;;;5044559;28;20352;-64
2023/10/09 14:43:27;;;;;;;;;;;;;;;;;;5029797;28;20388;-65
2023/10/09 14:45:53;;;;;;;;;;;;;;;;;;5042221;28;19952;-64
2023/10/09 14:48:18;;;;;;;;;;;;;;;;;;5025009;28;20175;-63
2023/10/09 14:50:47;;;;;;;;;;;;;;;;;;5039991;28;20054;-64
2023/10/09 14:53:15;;;;;;;;;;;;;;;;;;5012632;28;19932;-64
2023/10/09 14:55:41;;;;;;;;;;;;;;;;;;5013235;28;19920;-63
2023/10/09 14:58:07;;;;;;;;;;;;;;;;;;5031501;28;20400;-62
2023/10/09 15:00:38;;;;;;;;;;;;;;;;;;5013280;28;19921;-65
2023/10/09 15:03:14;;;;;;;;;;;;;;;;;;5014056;28;20354;-63
2023/10/09 15:05:42;;;;;;;;;;;;;;;;;;5030981;28;19924;-64
2023/10/09 15:08:10;;;;;;;;;;;;;;;;;;5039897;28;19981;-63
2023/10/09 15:10:37;;;;;;;;;;;;;;;;;;5041159;28;19921;-65
2023/10/09 15:13:08;;;;;;;;;;;;;;;;;;5041634;28;19928;-63
2023/10/09 15:15:36;;;;;;;;;;;;;;;;;;5032387;28;19928;-63
2023/10/09 15:18:03;;;;;;;;;;;;;;;;;;5032113;28;19975;-64
2023/10/09 15:20:31;;;;;;;;;;;;;;;;;;5008741;28;20256;-63
2023/10/09 15:23:01;;;;;;;;;;;;;;;;;;5015487;28;19925;-64
2023/10/09 15:25:31;;;;;;;;;;;;;;;;;;5040531;28;19920;-64
2023/10/09 15:27:57;;;;;;;;;;;;;;;;;;5021559;28;19920;-64
2023/10/09 15:30:27;;;;;;;;;;;;;;;;;;5039961;28;20173;-67
2023/10/09 15:32:53;;;;;;;;;;;;;;;;;;5030262;28;20376;-63
2023/10/09 15:35:18;;;;;;;;;;;;;;;;;;5008089;28;19916;-64
2023/10/09 15:37:44;;;;;;;;;;;;;;;;;;5020934;28;20372;-65
2023/10/09 15:40:18;;;;;;;;;;;;;;;;;;5031022;28;19950;-65
2023/10/09 15:42:43;;;;;;;;;;;;;;;;;;5040888;28;19921;-64
2023/10/09 15:45:08;;;;;;;;;;;;;;;;;;5024592;28;20382;-64
2023/10/09 15:47:37;;;;;;;;;;;;;;;;;;5041218;28;19928;-64
2023/10/09 15:50:03;;;;;;;;;;;;;;;;;;5023146;28;19920;-64
2023/10/09 15:52:28;;;;;;;;;;;;;;;;;;5031762;28;19921;-64
2023/10/09 15:54:54;;;;;;;;;;;;;;;;;;5038451;28;20089;-65
2023/10/09 15:57:19;;;;;;;;;;;;;;;;;;5014811;28;19971;-65
2023/10/09 15:59:47;;;;;;;;;;;;;;;;;;5012659;28;19921;-63
2023/10/09 16:02:16;;;;;;;;;;;;;;;;;;5012211;28;19920;-64
2023/10/09 16:04:42;;;;;;;;;;;;;;;;;;5031046;28;20208;-64
2023/10/09 16:07:10;;;;;;;;;;;;;;;;;;5038104;28;19912;-64
2023/10/09 16:09:39;;;;;;;;;;;;;;;;;;5012933;28;19920;-64
2023/10/09 16:12:07;;;;;;;;;;;;;;;;;;5013393;28;21815;-64
2023/10/09 16:14:34;;;;;;;;;;;;;;;;;;5024629;28;19974;-63
2023/10/09 16:16:59;;;;;;;;;;;;;;;;;;5011227;28;19927;-64
2023/10/09 16:19:28;;;;;;;;;;;;;;;;;;5024167;28;19925;-65
2023/10/09 16:21:53;;;;;;;;;;;;;;;;;;5040133;28;19920;-64
2023/10/09 16:24:21;;;;;;;;;;;;;;;;;;5028132;28;19917;-64
2023/10/09 16:26:51;;;;;;;;;;;;;;;;;;5023469;28;19916;-64
2023/10/09 16:29:16;;;;;;;;;;;;;;;;;;5015116;28;19921;-64
2023/10/09 16:31:44;;;;;;;;;;;;;;;;;;5040443;28;19924;-64
2023/10/09 16:34:12;;;;;;;;;;;;;;;;;;5015227;28;19924;-66
2023/10/09 16:36:38;;;;;;;;;;;;;;;;;;5011365;28;19991;-63
2023/10/09 16:39:18;;;;;;;;;;;;;;;;;;5042217;28;20809;-63
2023/10/09 16:41:44;;;;;;;;;;;;;;;;;;5013941;28;19966;-63
2023/10/09 16:44:16;;;;;;;;;;;;;;;;;;5024925;28;19917;-64
2023/10/09 16:46:44;;;;;;;;;;;;;;;;;;5041838;28;19954;-65
2023/10/09 16:49:13;;;;;;;;;;;;;;;;;;5031963;28;19963;-64
2023/10/09 16:51:39;;;;;;;;;;;;;;;;;;5031616;28;20031;-64
2023/10/09 16:54:07;;;;;;;;;;;;;;;;;;5016110;28;19917;-63
2023/10/09 16:56:33;;;;;;;;;;;;;;;;;;5012080;28;19923;-63
2023/10/09 16:59:00;;;;;;;;;;;;;;;;;;5023108;28;19938;-64
2023/10/09 17:01:28;;;;;;;;;;;;;;;;;;5041120;28;19916;-64
2023/10/09 17:03:57;;;;;;;;;;;;;;;;;;5042074;28;20616;-65
2023/10/09 17:06:23;;;;;;;;;;;;;;;;;;5010507;28;19976;-65
2023/10/09 17:08:52;;;;;;;;;;;;;;;;;;5014244;28;19944;-65
2023/10/09 17:11:20;;;;;;;;;;;;;;;;;;5039472;28;20139;-63
2023/10/09 17:13:47;;;;;;;;;;;;;;;;;;5042870;28;19920;-64
2023/10/09 17:16:16;;;;;;;;;;;;;;;;;;5023872;28;19924;-65
2023/10/09 17:18:44;;;;;;;;;;;;;;;;;;5015813;28;20480;-63
2023/10/09 17:21:11;;;;;;;;;;;;;;;;;;5025938;28;21604;-64
2023/10/09 17:23:36;;;;;;;;;;;;;;;;;;5019925;28;19956;-64
2023/10/09 17:26:10;;;;;;;;;;;;;;;;;;5025621;28;19917;-64
2023/10/09 17:28:38;;;;;;;;;;;;;;;;;;5031424;28;19917;-64
2023/10/09 17:31:08;;;;;;;;;;;;;;;;;;5027242;28;19971;-65
2023/10/09 17:33:34;;;;;;;;;;;;;;;;;;5013989;28;20141;-65
2023/10/09 17:35:59;;;;;;;;;;;;;;;;;;5013492;28;20377;-64
2023/10/09 17:38:30;;;;;;;;;;;;;;;;;;5026705;28;20600;-64
2023/10/09 17:40:55;;;;;;;;;;;;;;;;;;5022364;28;19921;-66
2023/10/09 17:43:24;;;;;;;;;;;;;;;;;;5026614;28;19923;-64
2023/10/09 17:45:53;;;;;;;;;;;;;;;;;;5017187;28;19939;-64
2023/10/09 17:48:21;;;;;;;;;;;;;;;;;;5027995;28;20008;-64
2023/10/09 17:50:49;;;;;;;;;;;;;;;;;;5010351;28;20119;-64
2023/10/09 17:53:16;;;;;;;;;;;;;;;;;;5025510;28;19924;-64
2023/10/09 17:55:44;;;;;;;;;;;;;;;;;;5025129;28;19916;-63
2023/10/09 17:58:11;;;;;;;;;;;;;;;;;;5044111;28;19927;-65
2023/10/09 18:00:39;;;;;;;;;;;;;;;;;;5030108;28;20050;-63
2023/10/09 18:03:05;;;;;;;;;;;;;;;;;;5041479;28;19946;-65
2023/10/09 18:05:30;;;;;;;;;;;;;;;;;;5008831;28;20414;-64
2023/10/09 18:07:59;;;;;;;;;;;;;;;;;;5024218;28;19996;-65
2023/10/09 18:10:29;;;;;;;;;;;;;;;;;;5024378;28;20008;-67
2023/10/09 18:12:55;;;;;;;;;;;;;;;;;;5025095;28;20176;-65
2023/10/09 18:15:20;;;;;;;;;;;;;;;;;;5025445;28;20059;-64
2023/10/09 18:17:49;;;;;;;;;;;;;;;;;;5011620;28;19923;-64
2023/10/09 18:20:20;;;;;;;;;;;;;;;;;;5025954;28;19925;-64
2023/10/09 18:22:46;;;;;;;;;;;;;;;;;;5024590;28;19920;-65
2023/10/09 18:25:14;;;;;;;;;;;;;;;;;;5025222;28;20354;-64
2023/10/09 18:27:40;;;;;;;;;;;;;;;;;;5015595;28;19973;-64
2023/10/09 18:30:05;;;;;;;;;;;;;;;;;;5026643;28;19971;-65
2023/10/09 18:32:34;;;;;;;;;;;;;;;;;;5023091;28;19932;-65
2023/10/09 18:35:04;;;;;;;;;;;;;;;;;;5025479;28;19927;-65
2023/10/09 18:37:31;;;;;;;;;;;;;;;;;;5032421;28;19921;-65
2023/10/09 18:39:59;;;;;;;;;;;;;;;;;;5030335;28;20488;-64
2023/10/09 18:42:24;;;;;;;;;;;;;;;;;;5025369;28;20309;-63
2023/10/09 18:44:52;;;;;;;;;;;;;;;;;;5016608;28;21330;-64
2023/10/09 18:47:20;;;;;;;;;;;;;;;;;;5031870;28;19928;-64
2023/10/09 18:49:47;;;;;;;;;;;;;;;;;;5030322;28;19920;-65
2023/10/09 18:52:13;;;;;;;;;;;;;;;;;;5041930;28;19920;-64
2023/10/09 18:54:39;;;;;;;;;;;;;;;;;;5026812;28;19920;-64
2023/10/09 18:57:04;;;;;;;;;;;;;;;;;;5043942;28;20015;-64
2023/10/09 18:59:29;;;;;;;;;;;;;;;;;;5025056;28;19921;-65
2023/10/09 19:01:57;;;;;;;;;;;;;;;;;;5024976;28;19916;-64
2023/10/09 19:04:25;;;;;;;;;;;;;;;;;;5040578;28;19958;-64
2023/10/09 19:06:53;;;;;;;;;;;;;;;;;;5013098;28;19999;-64
2023/10/09 19:09:22;;;;;;;;;;;;;;;;;;5026397;28;19921;-64
2023/10/09 19:11:50;;;;;;;;;;;;;;;;;;5011832;28;19925;-65
2023/10/09 19:14:19;;;;;;;;;;;;;;;;;;5032352;28;19932;-65
2023/10/09 19:16:46;;;;;;;;;;;;;;;;;;5024931;28;20672;-65
2023/10/09 19:19:12;;;;;;;;;;;;;;;;;;5042642;28;21380;-65
2023/10/09 19:21:37;;;;;;;;;;;;;;;;;;5040208;28;19921;-65
2023/10/09 19:24:11;;;;;;;;;;;;;;;;;;5045277;28;19971;-63
2023/10/09 19:26:41;;;;;;;;;;;;;;;;;;5040279;28;19916;-64
2023/10/09 19:29:10;;;;;;;;;;;;;;;;;;5025021;28;20614;-65
2023/10/09 19:31:36;;;;;;;;;;;;;;;;;;5014619;28;19924;-65
2023/10/09 19:34:01;;;;;;;;;;;;;;;;;;5023009;28;20646;-65
2023/10/09 19:36:29;;;;;;;;;;;;;;;;;;5012779;28;19982;-64